sensor_id;sensor_type;location;lat;lon;timestamp;pressure;altitude;pressure_sealevel;temperature;humidity
78373;BME280;67656;52.074;4.758;2024-02-23T00:03:13;98719.91;;;5.54;100.00
78373;BME280;67656;52.074;4.758;2024-02-23T00:08:15;98737.72;;;5.46;100.00
78373;BME280;67656;52.074;4.758;2024-02-23T00:13:16;98725.88;;;5.58;100.00
78373;BME280;67656;52.074;4.758;2024-02-23T00:18:17;98724.84;;;5.62;100.00
78373;BME280;67656;52.074;4.758;2024-02-23T00:23:17;98740.84;;;5.54;100.00
78373;BME280;67656;52.074;4.758;2024-02-23T00:28:17;98744.25;;;5.57;100.00
78373;BME280;67656;52.074;4.758;2024-02-23T00:33:18;98746.88;;;5.57;100.00
78373;BME280;67656;52.074;4.758;2024-02-23T00:38:18;98752.31;;;5.52;100.00
78373;BME280;67656;52.074;4.758;2024-02-23T00:43:19;98765.44;;;5.50;100.00
78373;BME280;67656;52.074;4.758;2024-02-23T00:48:21;98762.09;;;5.47;100.00
78373;BME280;67656;52.074;4.758;2024-02-23T00:53:21;98783.09;;;5.45;100.00
78373;BME280;67656;52.074;4.758;2024-02-23T00:58:22;98792.94;;;5.38;100.00
78373;BME280;67656;52.074;4.758;2024-02-23T01:03:22;98814.66;;;5.18;100.00
78373;BME280;67656;52.074;4.758;2024-02-23T01:08:23;98810.19;;;4.98;100.00
78373;BME280;67656;52.074;4.758;2024-02-23T01:13:23;98823.31;;;4.97;100.00
78373;BME280;67656;52.074;4.758;2024-02-23T01:18:23;98845.81;;;4.77;100.00
78373;BME280;67656;52.074;4.758;2024-02-23T01:23:24;98854.00;;;4.17;100.00
78373;BME280;67656;52.074;4.758;2024-02-23T01:28:24;98852.69;;;4.04;100.00
78373;BME280;67656;52.074;4.758;2024-02-23T01:33:26;98854.56;;;3.73;100.00
78373;BME280;67656;52.074;4.758;2024-02-23T01:38:26;98869.88;;;3.84;100.00
78373;BME280;67656;52.074;4.758;2024-02-23T01:43:27;98868.16;;;3.83;100.00
78373;BME280;67656;52.074;4.758;2024-02-23T01:48:27;98886.03;;;3.95;100.00
78373;BME280;67656;52.074;4.758;2024-02-23T01:53:28;98866.78;;;4.50;100.00
78373;BME280;67656;52.074;4.758;2024-02-23T01:58:29;98867.88;;;4.68;100.00
78373;BME280;67656;52.074;4.758;2024-02-23T02:03:32;98859.22;;;4.68;100.00
78373;BME280;67656;52.074;4.758;2024-02-23T02:08:33;98864.00;;;4.55;100.00
78373;BME280;67656;52.074;4.758;2024-02-23T02:13:34;98864.97;;;4.52;100.00
78373;BME280;67656;52.074;4.758;2024-02-23T02:18:34;98878.94;;;4.51;100.00
78373;BME280;67656;52.074;4.758;2024-02-23T02:23:34;98877.41;;;4.71;100.00
78373;BME280;67656;52.074;4.758;2024-02-23T02:28:35;98874.78;;;4.71;100.00
78373;BME280;67656;52.074;4.758;2024-02-23T02:33:35;98878.50;;;4.89;100.00
78373;BME280;67656;52.074;4.758;2024-02-23T02:38:36;98875.66;;;4.95;100.00
78373;BME280;67656;52.074;4.758;2024-02-23T02:43:36;98882.19;;;4.83;100.00
78373;BME280;67656;52.074;4.758;2024-02-23T02:48:36;98897.34;;;4.73;100.00
78373;BME280;67656;52.074;4.758;2024-02-23T02:53:37;98894.94;;;4.67;100.00
78373;BME280;67656;52.074;4.758;2024-02-23T02:58:37;98889.19;;;4.57;100.00
78373;BME280;67656;52.074;4.758;2024-02-23T03:03:37;98887.41;;;4.58;100.00
78373;BME280;67656;52.074;4.758;2024-02-23T03:08:38;98890.19;;;4.53;100.00
78373;BME280;67656;52.074;4.758;2024-02-23T03:13:38;98905.06;;;4.51;100.00
78373;BME280;67656;52.074;4.758;2024-02-23T03:18:39;98905.16;;;4.48;100.00
78373;BME280;67656;52.074;4.758;2024-02-23T03:23:39;98907.28;;;4.37;100.00
78373;BME280;67656;52.074;4.758;2024-02-23T03:28:39;98923.19;;;4.30;100.00
78373;BME280;67656;52.074;4.758;2024-02-23T03:33:40;98926.03;;;4.23;100.00
78373;BME280;67656;52.074;4.758;2024-02-23T03:38:40;98937.53;;;4.17;100.00
78373;BME280;67656;52.074;4.758;2024-02-23T03:43:41;98941.06;;;4.16;100.00
78373;BME280;67656;52.074;4.758;2024-02-23T03:48:41;98945.53;;;4.12;100.00
78373;BME280;67656;52.074;4.758;2024-02-23T03:53:42;98947.25;;;4.12;100.00
78373;BME280;67656;52.074;4.758;2024-02-23T03:58:43;98941.16;;;4.13;100.00
78373;BME280;67656;52.074;4.758;2024-02-23T04:03:43;98943.91;;;4.08;100.00
78373;BME280;67656;52.074;4.758;2024-02-23T04:08:44;98947.41;;;4.07;100.00
78373;BME280;67656;52.074;4.758;2024-02-23T04:13:44;98942.03;;;4.12;100.00
78373;BME280;67656;52.074;4.758;2024-02-23T04:18:45;98946.47;;;4.10;100.00
78373;BME280;67656;52.074;4.758;2024-02-23T04:23:45;98950.09;;;4.06;100.00
78373;BME280;67656;52.074;4.758;2024-02-23T04:28:46;98964.78;;;4.08;100.00
78373;BME280;67656;52.074;4.758;2024-02-23T04:33:46;98961.94;;;4.16;100.00
78373;BME280;67656;52.074;4.758;2024-02-23T04:38:48;98975.72;;;4.21;100.00
78373;BME280;67656;52.074;4.758;2024-02-23T04:43:48;98984.31;;;4.23;100.00
78373;BME280;67656;52.074;4.758;2024-02-23T04:48:49;98969.47;;;4.25;100.00
78373;BME280;67656;52.074;4.758;2024-02-23T04:53:49;98982.19;;;4.36;100.00
78373;BME280;67656;52.074;4.758;2024-02-23T04:58:51;98972.72;;;4.34;100.00
78373;BME280;67656;52.074;4.758;2024-02-23T05:03:51;98967.31;;;4.38;100.00
78373;BME280;67656;52.074;4.758;2024-02-23T05:08:51;98965.41;;;4.43;100.00
78373;BME280;67656;52.074;4.758;2024-02-23T05:13:52;98965.47;;;4.42;100.00
78373;BME280;67656;52.074;4.758;2024-02-23T05:18:52;98957.16;;;4.56;100.00
78373;BME280;67656;52.074;4.758;2024-02-23T05:23:53;98961.22;;;4.65;100.00
78373;BME280;67656;52.074;4.758;2024-02-23T05:28:53;98953.22;;;4.69;100.00
78373;BME280;67656;52.074;4.758;2024-02-23T05:33:55;98952.00;;;4.80;100.00
78373;BME280;67656;52.074;4.758;2024-02-23T05:38:55;98951.25;;;4.76;100.00
78373;BME280;67656;52.074;4.758;2024-02-23T05:43:56;98932.84;;;4.79;100.00
78373;BME280;67656;52.074;4.758;2024-02-23T05:48:57;98928.75;;;4.72;100.00
78373;BME280;67656;52.074;4.758;2024-02-23T05:53:58;98947.97;;;4.71;100.00
78373;BME280;67656;52.074;4.758;2024-02-23T05:58:58;98941.69;;;4.75;100.00
78373;BME280;67656;52.074;4.758;2024-02-23T06:03:58;98944.22;;;4.78;100.00
78373;BME280;67656;52.074;4.758;2024-02-23T06:08:59;98953.19;;;4.71;100.00
78373;BME280;67656;52.074;4.758;2024-02-23T06:13:59;98946.25;;;4.70;100.00
78373;BME280;67656;52.074;4.758;2024-02-23T06:19:01;98948.16;;;4.65;100.00
78373;BME280;67656;52.074;4.758;2024-02-23T06:24:03;98947.41;;;4.61;100.00
78373;BME280;67656;52.074;4.758;2024-02-23T06:29:04;98952.28;;;4.72;100.00
78373;BME280;67656;52.074;4.758;2024-02-23T06:34:05;98959.25;;;4.71;100.00
78373;BME280;67656;52.074;4.758;2024-02-23T06:39:06;98944.09;;;4.81;100.00
78373;BME280;67656;52.074;4.758;2024-02-23T06:44:06;98941.03;;;4.70;100.00
78373;BME280;67656;52.074;4.758;2024-02-23T06:49:08;98942.59;;;4.74;100.00
78373;BME280;67656;52.074;4.758;2024-02-23T06:54:08;98948.00;;;4.69;100.00
78373;BME280;67656;52.074;4.758;2024-02-23T06:59:09;98951.34;;;4.73;100.00
78373;BME280;67656;52.074;4.758;2024-02-23T07:04:10;98932.03;;;4.77;100.00
78373;BME280;67656;52.074;4.758;2024-02-23T07:09:11;98960.75;;;4.79;100.00
78373;BME280;67656;52.074;4.758;2024-02-23T07:14:11;98947.53;;;4.83;100.00
78373;BME280;67656;52.074;4.758;2024-02-23T07:19:14;98939.47;;;4.89;100.00
78373;BME280;67656;52.074;4.758;2024-02-23T07:24:15;98941.09;;;4.92;100.00
78373;BME280;67656;52.074;4.758;2024-02-23T07:29:16;98936.03;;;4.87;100.00
78373;BME280;67656;52.074;4.758;2024-02-23T07:34:16;98922.31;;;4.82;100.00
78373;BME280;67656;52.074;4.758;2024-02-23T07:39:17;98927.34;;;4.87;100.00
78373;BME280;67656;52.074;4.758;2024-02-23T07:44:17;98911.22;;;4.75;100.00
78373;BME280;67656;52.074;4.758;2024-02-23T07:49:18;98910.06;;;4.83;100.00
78373;BME280;67656;52.074;4.758;2024-02-23T07:54:18;98919.22;;;4.71;100.00
78373;BME280;67656;52.074;4.758;2024-02-23T07:59:18;98949.72;;;4.43;100.00
78373;BME280;67656;52.074;4.758;2024-02-23T08:04:19;98938.22;;;4.22;100.00
78373;BME280;67656;52.074;4.758;2024-02-23T08:09:19;98942.84;;;4.14;100.00
78373;BME280;67656;52.074;4.758;2024-02-23T08:14:20;98931.34;;;4.20;100.00
78373;BME280;67656;52.074;4.758;2024-02-23T08:19:20;98924.41;;;4.20;100.00
78373;BME280;67656;52.074;4.758;2024-02-23T08:24:20;98931.16;;;4.26;100.00
78373;BME280;67656;52.074;4.758;2024-02-23T08:29:21;98937.03;;;4.33;100.00
78373;BME280;67656;52.074;4.758;2024-02-23T08:34:21;98937.63;;;4.41;100.00
78373;BME280;67656;52.074;4.758;2024-02-23T08:39:24;98943.66;;;4.43;100.00
78373;BME280;67656;52.074;4.758;2024-02-23T08:44:24;98930.53;;;4.44;100.00
78373;BME280;67656;52.074;4.758;2024-02-23T08:49:26;98947.25;;;4.40;100.00
78373;BME280;67656;52.074;4.758;2024-02-23T08:54:26;98942.03;;;4.39;100.00
78373;BME280;67656;52.074;4.758;2024-02-23T08:59:27;98940.41;;;4.36;100.00
78373;BME280;67656;52.074;4.758;2024-02-23T09:04:27;98948.66;;;4.49;100.00
78373;BME280;67656;52.074;4.758;2024-02-23T09:09:28;98930.44;;;4.73;100.00
78373;BME280;67656;52.074;4.758;2024-02-23T09:14:28;98930.25;;;4.79;100.00
78373;BME280;67656;52.074;4.758;2024-02-23T09:19:28;98928.72;;;4.97;100.00
78373;BME280;67656;52.074;4.758;2024-02-23T09:24:29;98913.84;;;5.23;100.00
78373;BME280;67656;52.074;4.758;2024-02-23T09:29:30;98939.16;;;5.22;100.00
78373;BME280;67656;52.074;4.758;2024-02-23T09:34:31;98917.47;;;5.19;100.00
78373;BME280;67656;52.074;4.758;2024-02-23T09:39:32;98918.56;;;5.13;100.00
78373;BME280;67656;52.074;4.758;2024-02-23T09:44:33;98916.00;;;5.35;100.00
78373;BME280;67656;52.074;4.758;2024-02-23T09:49:40;98917.06;;;5.53;100.00
78373;BME280;67656;52.074;4.758;2024-02-23T09:54:42;98944.59;;;5.64;100.00
78373;BME280;67656;52.074;4.758;2024-02-23T09:59:43;98945.09;;;5.74;100.00
78373;BME280;67656;52.074;4.758;2024-02-23T10:04:43;98937.44;;;5.69;100.00
78373;BME280;67656;52.074;4.758;2024-02-23T10:09:44;98947.53;;;5.78;100.00
78373;BME280;67656;52.074;4.758;2024-02-23T10:14:45;98944.34;;;6.16;100.00
78373;BME280;67656;52.074;4.758;2024-02-23T10:19:45;98949.69;;;6.35;100.00
78373;BME280;67656;52.074;4.758;2024-02-23T10:24:46;98954.50;;;6.24;100.00
78373;BME280;67656;52.074;4.758;2024-02-23T10:29:49;98961.53;;;6.44;100.00
78373;BME280;67656;52.074;4.758;2024-02-23T10:34:52;98960.81;;;6.40;100.00
78373;BME280;67656;52.074;4.758;2024-02-23T10:39:57;98972.91;;;6.65;100.00
78373;BME280;67656;52.074;4.758;2024-02-23T10:44:58;98970.16;;;6.68;100.00
78373;BME280;67656;52.074;4.758;2024-02-23T10:50:00;98968.56;;;7.05;100.00
78373;BME280;67656;52.074;4.758;2024-02-23T10:55:01;98971.69;;;7.14;100.00
78373;BME280;67656;52.074;4.758;2024-02-23T11:00:03;98954.25;;;7.33;100.00
78373;BME280;67656;52.074;4.758;2024-02-23T11:05:05;98958.00;;;7.07;100.00
78373;BME280;67656;52.074;4.758;2024-02-23T11:10:07;98964.19;;;7.25;100.00
78373;BME280;67656;52.074;4.758;2024-02-23T11:15:08;98969.31;;;7.28;100.00
78373;BME280;67656;52.074;4.758;2024-02-23T11:20:15;98977.66;;;7.57;100.00
78373;BME280;67656;52.074;4.758;2024-02-23T11:25:17;98984.75;;;7.55;100.00
78373;BME280;67656;52.074;4.758;2024-02-23T11:30:18;98991.59;;;7.38;100.00
78373;BME280;67656;52.074;4.758;2024-02-23T11:35:18;98997.13;;;7.32;100.00
78373;BME280;67656;52.074;4.758;2024-02-23T11:40:19;98999.84;;;7.50;100.00
78373;BME280;67656;52.074;4.758;2024-02-23T11:45:21;99015.63;;;7.29;100.00
78373;BME280;67656;52.074;4.758;2024-02-23T11:50:21;98998.31;;;7.46;100.00
78373;BME280;67656;52.074;4.758;2024-02-23T11:55:22;98994.88;;;7.44;100.00
78373;BME280;67656;52.074;4.758;2024-02-23T12:00:23;98998.88;;;7.52;100.00
78373;BME280;67656;52.074;4.758;2024-02-23T12:05:23;99015.91;;;7.82;100.00
78373;BME280;67656;52.074;4.758;2024-02-23T12:10:26;99012.38;;;7.83;100.00
78373;BME280;67656;52.074;4.758;2024-02-23T12:15:27;99005.28;;;7.85;100.00
78373;BME280;67656;52.074;4.758;2024-02-23T12:20:27;99014.91;;;7.84;100.00
78373;BME280;67656;52.074;4.758;2024-02-23T12:25:30;99014.44;;;7.95;100.00
78373;BME280;67656;52.074;4.758;2024-02-23T12:30:31;99009.34;;;8.29;100.00
78373;BME280;67656;52.074;4.758;2024-02-23T12:35:35;99020.56;;;8.33;100.00
78373;BME280;67656;52.074;4.758;2024-02-23T12:40:35;99002.25;;;8.31;100.00
78373;BME280;67656;52.074;4.758;2024-02-23T12:45:36;99027.31;;;8.75;100.00
78373;BME280;67656;52.074;4.758;2024-02-23T12:50:36;99019.97;;;8.45;100.00
78373;BME280;67656;52.074;4.758;2024-02-23T12:55:36;99036.19;;;8.55;100.00
78373;BME280;67656;52.074;4.758;2024-02-23T13:00:37;99027.78;;;8.46;100.00
78373;BME280;67656;52.074;4.758;2024-02-23T13:05:37;99020.56;;;8.33;100.00
78373;BME280;67656;52.074;4.758;2024-02-23T13:10:38;99022.22;;;8.72;100.00
78373;BME280;67656;52.074;4.758;2024-02-23T13:15:38;99029.50;;;8.84;100.00
78373;BME280;67656;52.074;4.758;2024-02-23T13:20:39;99037.13;;;8.71;100.00
78373;BME280;67656;52.074;4.758;2024-02-23T13:25:41;99040.91;;;8.48;100.00
78373;BME280;67656;52.074;4.758;2024-02-23T13:30:42;99048.56;;;8.34;100.00
78373;BME280;67656;52.074;4.758;2024-02-23T13:35:42;99055.19;;;8.23;100.00
78373;BME280;67656;52.074;4.758;2024-02-23T13:40:46;99061.00;;;8.11;100.00
78373;BME280;67656;52.074;4.758;2024-02-23T13:45:51;99063.91;;;8.05;100.00
78373;BME280;67656;52.074;4.758;2024-02-23T13:50:52;99063.00;;;8.06;100.00
78373;BME280;67656;52.074;4.758;2024-02-23T13:55:52;99067.03;;;8.13;100.00
78373;BME280;67656;52.074;4.758;2024-02-23T14:00:53;99080.25;;;8.11;100.00
78373;BME280;67656;52.074;4.758;2024-02-23T14:05:56;99085.50;;;8.11;100.00
78373;BME280;67656;52.074;4.758;2024-02-23T14:10:56;99068.16;;;7.88;100.00
78373;BME280;67656;52.074;4.758;2024-02-23T14:15:57;99077.53;;;8.13;100.00
78373;BME280;67656;52.074;4.758;2024-02-23T14:20:57;99069.09;;;8.06;100.00
78373;BME280;67656;52.074;4.758;2024-02-23T14:25:58;99074.75;;;7.97;100.00
78373;BME280;67656;52.074;4.758;2024-02-23T14:30:59;99072.56;;;7.88;100.00
78373;BME280;67656;52.074;4.758;2024-02-23T14:35:59;99080.66;;;7.83;100.00
78373;BME280;67656;52.074;4.758;2024-02-23T14:41:00;99086.69;;;7.85;100.00
78373;BME280;67656;52.074;4.758;2024-02-23T14:46:00;99099.78;;;7.66;100.00
78373;BME280;67656;52.074;4.758;2024-02-23T14:51:01;99102.75;;;7.58;100.00
78373;BME280;67656;52.074;4.758;2024-02-23T14:56:02;99100.50;;;7.69;100.00
78373;BME280;67656;52.074;4.758;2024-02-23T15:01:02;99109.03;;;7.75;100.00
78373;BME280;67656;52.074;4.758;2024-02-23T15:06:03;99114.94;;;7.80;100.00
78373;BME280;67656;52.074;4.758;2024-02-23T15:11:03;99122.34;;;7.70;100.00
78373;BME280;67656;52.074;4.758;2024-02-23T15:16:05;99110.84;;;7.93;100.00
78373;BME280;67656;52.074;4.758;2024-02-23T15:21:06;99118.44;;;7.99;100.00
78373;BME280;67656;52.074;4.758;2024-02-23T15:26:06;99120.69;;;7.88;100.00
78373;BME280;67656;52.074;4.758;2024-02-23T15:31:07;99117.38;;;8.04;100.00
78373;BME280;67656;52.074;4.758;2024-02-23T15:36:08;99117.00;;;7.92;100.00
78373;BME280;67656;52.074;4.758;2024-02-23T15:41:09;99121.69;;;7.86;100.00
78373;BME280;67656;52.074;4.758;2024-02-23T15:46:09;99128.19;;;7.77;100.00
78373;BME280;67656;52.074;4.758;2024-02-23T15:51:10;99120.25;;;7.78;100.00
78373;BME280;67656;52.074;4.758;2024-02-23T15:56:10;99135.38;;;7.52;100.00
78373;BME280;67656;52.074;4.758;2024-02-23T16:01:11;99130.44;;;7.45;100.00
78373;BME280;67656;52.074;4.758;2024-02-23T16:06:11;99141.16;;;7.40;100.00
78373;BME280;67656;52.074;4.758;2024-02-23T16:11:15;99147.13;;;7.44;100.00
78373;BME280;67656;52.074;4.758;2024-02-23T16:16:15;99148.94;;;7.42;100.00
78373;BME280;67656;52.074;4.758;2024-02-23T16:21:16;99149.34;;;7.32;100.00
78373;BME280;67656;52.074;4.758;2024-02-23T16:26:16;99139.09;;;7.26;100.00
78373;BME280;67656;52.074;4.758;2024-02-23T16:31:17;99139.34;;;7.20;100.00
78373;BME280;67656;52.074;4.758;2024-02-23T16:36:17;99154.38;;;7.16;100.00
78373;BME280;67656;52.074;4.758;2024-02-23T16:41:18;99157.31;;;7.09;100.00
78373;BME280;67656;52.074;4.758;2024-02-23T16:46:18;99175.59;;;6.88;100.00
78373;BME280;67656;52.074;4.758;2024-02-23T16:51:19;99187.16;;;6.84;100.00
78373;BME280;67656;52.074;4.758;2024-02-23T16:56:19;99195.13;;;6.81;100.00
78373;BME280;67656;52.074;4.758;2024-02-23T17:01:20;99202.78;;;6.63;100.00
78373;BME280;67656;52.074;4.758;2024-02-23T17:06:20;99215.91;;;6.39;100.00
78373;BME280;67656;52.074;4.758;2024-02-23T17:11:21;99246.50;;;6.13;100.00
78373;BME280;67656;52.074;4.758;2024-02-23T17:16:21;99252.56;;;5.89;100.00
78373;BME280;67656;52.074;4.758;2024-02-23T17:21:23;99253.31;;;5.67;100.00
78373;BME280;67656;52.074;4.758;2024-02-23T17:26:23;99258.16;;;5.52;100.00
78373;BME280;67656;52.074;4.758;2024-02-23T17:31:24;99268.31;;;5.35;100.00
78373;BME280;67656;52.074;4.758;2024-02-23T17:36:24;99279.94;;;5.25;100.00
78373;BME280;67656;52.074;4.758;2024-02-23T17:41:25;99269.34;;;5.01;100.00
78373;BME280;67656;52.074;4.758;2024-02-23T17:46:25;99278.47;;;4.87;100.00
78373;BME280;67656;52.074;4.758;2024-02-23T17:51:25;99290.09;;;4.77;100.00
78373;BME280;67656;52.074;4.758;2024-02-23T17:56:26;99291.44;;;4.60;100.00
78373;BME280;67656;52.074;4.758;2024-02-23T18:01:27;99294.28;;;4.53;100.00
78373;BME280;67656;52.074;4.758;2024-02-23T18:06:27;99303.25;;;4.42;100.00
78373;BME280;67656;52.074;4.758;2024-02-23T18:11:27;99304.69;;;4.54;100.00
78373;BME280;67656;52.074;4.758;2024-02-23T18:16:28;99302.06;;;4.54;100.00
78373;BME280;67656;52.074;4.758;2024-02-23T18:21:30;99308.34;;;4.49;100.00
78373;BME280;67656;52.074;4.758;2024-02-23T18:26:30;99313.94;;;4.35;100.00
78373;BME280;67656;52.074;4.758;2024-02-23T18:31:31;99313.34;;;4.23;100.00
78373;BME280;67656;52.074;4.758;2024-02-23T18:36:31;99316.97;;;4.19;100.00
78373;BME280;67656;52.074;4.758;2024-02-23T18:41:32;99319.38;;;4.27;100.00
78373;BME280;67656;52.074;4.758;2024-02-23T18:46:32;99322.94;;;4.23;100.00
78373;BME280;67656;52.074;4.758;2024-02-23T18:51:33;99318.34;;;4.33;100.00
78373;BME280;67656;52.074;4.758;2024-02-23T18:56:33;99326.75;;;4.44;100.00
78373;BME280;67656;52.074;4.758;2024-02-23T19:01:34;99331.84;;;4.49;100.00
78373;BME280;67656;52.074;4.758;2024-02-23T19:06:34;99339.28;;;4.63;100.00
78373;BME280;67656;52.074;4.758;2024-02-23T19:11:35;99359.09;;;4.71;100.00
78373;BME280;67656;52.074;4.758;2024-02-23T19:16:36;99361.28;;;4.87;100.00
78373;BME280;67656;52.074;4.758;2024-02-23T19:21:36;99359.22;;;4.98;100.00
78373;BME280;67656;52.074;4.758;2024-02-23T19:26:36;99365.63;;;4.86;100.00
78373;BME280;67656;52.074;4.758;2024-02-23T19:31:37;99358.06;;;4.77;100.00
78373;BME280;67656;52.074;4.758;2024-02-23T19:36:37;99356.06;;;4.85;100.00
78373;BME280;67656;52.074;4.758;2024-02-23T19:41:42;99362.72;;;4.66;100.00
78373;BME280;67656;52.074;4.758;2024-02-23T19:46:42;99359.28;;;4.64;100.00
78373;BME280;67656;52.074;4.758;2024-02-23T19:51:43;99363.88;;;4.55;100.00
78373;BME280;67656;52.074;4.758;2024-02-23T19:56:43;99364.00;;;4.51;100.00
78373;BME280;67656;52.074;4.758;2024-02-23T20:01:43;99366.78;;;4.44;100.00
78373;BME280;67656;52.074;4.758;2024-02-23T20:06:44;99368.56;;;4.42;100.00
78373;BME280;67656;52.074;4.758;2024-02-23T20:11:44;99365.25;;;4.36;100.00
78373;BME280;67656;52.074;4.758;2024-02-23T20:16:45;99375.75;;;4.34;100.00
78373;BME280;67656;52.074;4.758;2024-02-23T20:21:45;99378.56;;;4.26;100.00
78373;BME280;67656;52.074;4.758;2024-02-23T20:26:46;99383.97;;;4.20;100.00
78373;BME280;67656;52.074;4.758;2024-02-23T20:31:47;99382.81;;;4.30;100.00
78373;BME280;67656;52.074;4.758;2024-02-23T20:36:47;99388.53;;;4.45;100.00
78373;BME280;67656;52.074;4.758;2024-02-23T20:41:48;99385.69;;;4.54;100.00
78373;BME280;67656;52.074;4.758;2024-02-23T20:46:48;99388.84;;;4.66;100.00
78373;BME280;67656;52.074;4.758;2024-02-23T20:51:49;99396.63;;;4.69;100.00
78373;BME280;67656;52.074;4.758;2024-02-23T20:56:49;99403.59;;;4.68;100.00
78373;BME280;67656;52.074;4.758;2024-02-23T21:01:50;99401.09;;;4.65;100.00
78373;BME280;67656;52.074;4.758;2024-02-23T21:06:50;99401.84;;;4.69;100.00
78373;BME280;67656;52.074;4.758;2024-02-23T21:11:51;99394.97;;;4.65;100.00
78373;BME280;67656;52.074;4.758;2024-02-23T21:16:51;99397.66;;;4.61;100.00
78373;BME280;67656;52.074;4.758;2024-02-23T21:21:52;99397.66;;;4.61;100.00
78373;BME280;67656;52.074;4.758;2024-02-23T21:26:52;99403.00;;;4.58;100.00
78373;BME280;67656;52.074;4.758;2024-02-23T21:31:53;99401.19;;;4.60;100.00
78373;BME280;67656;52.074;4.758;2024-02-23T21:36:54;99401.16;;;4.62;100.00
78373;BME280;67656;52.074;4.758;2024-02-23T21:41:55;99402.91;;;4.61;100.00
78373;BME280;67656;52.074;4.758;2024-02-23T21:46:55;99411.81;;;4.54;100.00
78373;BME280;67656;52.074;4.758;2024-02-23T21:51:56;99415.16;;;4.59;100.00
78373;BME280;67656;52.074;4.758;2024-02-23T21:56:57;99411.81;;;4.54;100.00
78373;BME280;67656;52.074;4.758;2024-02-23T22:01:57;99414.00;;;4.37;100.00
78373;BME280;67656;52.074;4.758;2024-02-23T22:06:57;99426.91;;;4.43;100.00
78373;BME280;67656;52.074;4.758;2024-02-23T22:11:58;99416.47;;;4.43;100.00
78373;BME280;67656;52.074;4.758;2024-02-23T22:16:58;99425.19;;;4.42;100.00
78373;BME280;67656;52.074;4.758;2024-02-23T22:22:00;99423.47;;;4.41;100.00
78373;BME280;67656;52.074;4.758;2024-02-23T22:27:00;99427.72;;;4.45;100.00
78373;BME280;67656;52.074;4.758;2024-02-23T22:32:01;99426.00;;;4.44;100.00
78373;BME280;67656;52.074;4.758;2024-02-23T22:37:01;99422.56;;;4.42;100.00
78373;BME280;67656;52.074;4.758;2024-02-23T22:42:03;99423.66;;;4.33;100.00
78373;BME280;67656;52.074;4.758;2024-02-23T22:47:04;99421.38;;;4.21;100.00
78373;BME280;67656;52.074;4.758;2024-02-23T22:52:05;99425.03;;;4.13;100.00
78373;BME280;67656;52.074;4.758;2024-02-23T22:57:05;99431.28;;;4.06;100.00
78373;BME280;67656;52.074;4.758;2024-02-23T23:02:06;99427.19;;;3.96;100.00
78373;BME280;67656;52.074;4.758;2024-02-23T23:07:06;99429.13;;;3.86;100.00
78373;BME280;67656;52.074;4.758;2024-02-23T23:12:07;99430.13;;;3.80;100.00
78373;BME280;67656;52.074;4.758;2024-02-23T23:17:07;99427.63;;;3.76;100.00
78373;BME280;67656;52.074;4.758;2024-02-23T23:22:09;99443.28;;;3.76;100.00
78373;BME280;67656;52.074;4.758;2024-02-23T23:27:09;99453.06;;;3.66;100.00
78373;BME280;67656;52.074;4.758;2024-02-23T23:32:10;99452.59;;;3.47;100.00
78373;BME280;67656;52.074;4.758;2024-02-23T23:37:10;99454.47;;;3.42;100.00
78373;BME280;67656;52.074;4.758;2024-02-23T23:42:11;99464.91;;;3.42;100.00
78373;BME280;67656;52.074;4.758;2024-02-23T23:47:11;99470.84;;;3.48;100.00
78373;BME280;67656;52.074;4.758;2024-02-23T23:52:12;99471.69;;;3.49;100.00
78373;BME280;67656;52.074;4.758;2024-02-23T23:57:12;99473.53;;;3.45;100.00
